Time;durP1;ratioP1;P1;durP2;ratioP2;P2;SDS_P1;SDS_P2;PMS_P1;PMS_P2;Temp;Humidity;BMP_temperature;BMP_pressure;BME280_temperature;BME280_humidity;BME280_pressure;Samples;Min_cycle;Max_cycle;Signal;HPM_P1;HPM_P2
2023/06/30 00:02:06;;;;;;;12.43;5.05;;;14.60;99.90;;;;;;6212984;23;20023;-89
2023/06/30 00:04:32;;;;;;;17.13;4.80;;;15.40;99.90;;;;;;6211510;23;20019;-89
2023/06/30 00:07:02;;;;;;;9.52;3.92;;;14.30;99.90;;;;;;6235467;23;20448;-88
2023/06/30 00:09:28;;;;;;;10.90;4.60;;;14.20;99.90;;;;;;6211112;23;20016;-88
2023/06/30 00:11:57;;;;;;;18.42;4.30;;;14.10;99.90;;;;;;6208697;23;20142;-89
2023/06/30 00:14:23;;;;;;;12.93;4.60;;;14.10;99.90;;;;;;6234704;23;20103;-88
2023/06/30 00:16:50;;;;;;;14.10;4.55;;;14.10;99.90;;;;;;6235802;23;20051;-89
2023/06/30 00:19:16;;;;;;;10.25;3.65;;;14.30;99.90;;;;;;6235586;23;20016;-88
2023/06/30 00:21:43;;;;;;;16.08;4.40;;;14.00;99.90;;;;;;6210494;23;20024;-88
2023/06/30 00:24:10;;;;;;;15.95;4.55;;;13.90;99.90;;;;;;6235337;23;20020;-87
2023/06/30 00:26:36;;;;;;;11.57;4.20;;;13.90;99.90;;;;;;6236075;23;20016;-88
2023/06/30 00:29:05;;;;;;;9.00;3.65;;;13.90;99.90;;;;;;6210583;23;20016;-89
2023/06/30 00:31:31;;;;;;;11.90;4.53;;;13.90;99.90;;;;;;6234354;23;20085;-87
2023/06/30 00:33:57;;;;;;;13.40;4.90;;;13.70;99.90;;;;;;6209416;23;20107;-88
2023/06/30 00:36:23;;;;;;;16.15;4.72;;;13.70;99.90;;;;;;6209520;23;20087;-87
2023/06/30 00:38:51;;;;;;;8.77;4.18;;;13.70;99.90;;;;;;6210146;23;20043;-88
2023/06/30 00:41:18;;;;;;;8.30;3.92;;;13.60;99.90;;;;;;6235957;22;20083;-89
2023/06/30 00:43:43;;;;;;;11.98;4.40;;;13.50;99.90;;;;;;6210142;23;20012;-89
2023/06/30 00:46:12;;;;;;;9.02;4.38;;;13.40;99.90;;;;;;6211359;23;20129;-86
2023/06/30 00:48:38;;;;;;;6.40;3.70;;;13.40;99.90;;;;;;6236410;23;20091;-87
2023/06/30 00:51:04;;;;;;;8.68;4.05;;;13.30;99.90;;;;;;6211719;23;20020;-88
2023/06/30 00:53:30;;;;;;;13.32;4.55;;;11.70;99.90;;;;;;6211511;23;20340;-88
2023/06/30 00:55:57;;;;;;;11.20;3.60;;;12.40;99.90;;;;;;6212658;23;20337;-87
2023/06/30 00:58:23;;;;;;;11.43;3.80;;;13.30;99.90;;;;;;6213010;23;20470;-88
2023/06/30 01:00:55;;;;;;;10.52;4.20;;;13.00;99.90;;;;;;6212107;23;20008;-89
2023/06/30 01:03:41;;;;;;;12.48;4.63;;;12.90;99.90;;;;;;6213740;23;20505;-88
2023/06/30 01:06:11;;;;;;;6.72;3.45;;;12.80;99.90;;;;;;6237432;23;20058;-89
2023/06/30 01:08:37;;;;;;;16.75;4.00;;;12.70;99.90;;;;;;6212097;23;20094;-88
2023/06/30 01:11:04;;;;;;;13.55;4.60;;;12.70;99.90;;;;;;6213000;23;20401;-88
2023/06/30 01:13:32;;;;;;;11.50;3.65;;;12.70;99.90;;;;;;6213918;23;20016;-89
2023/06/30 01:15:58;;;;;;;8.43;3.55;;;12.60;99.90;;;;;;6213189;23;20054;-88
2023/06/30 01:18:26;;;;;;;8.23;3.83;;;11.20;99.90;;;;;;6240492;23;20019;-88
2023/06/30 01:20:53;;;;;;;11.85;3.58;;;12.50;99.90;;;;;;6218112;23;20452;-89
2023/06/30 01:23:31;;;;;;;8.57;4.00;;;12.40;99.90;;;;;;6221212;23;20637;-87
2023/06/30 01:25:59;;;;;;;14.48;4.95;;;12.40;99.90;;;;;;6246249;23;20024;-89
2023/06/30 01:28:27;;;;;;;12.07;3.33;;;13.10;99.90;;;;;;6223821;23;20050;-88
2023/06/30 01:30:54;;;;;;;8.20;3.28;;;12.30;99.90;;;;;;6225016;23;20038;-89
2023/06/30 01:33:21;;;;;;;10.85;3.55;;;12.00;99.90;;;;;;6223228;23;20040;-90
2023/06/30 01:35:47;;;;;;;9.15;3.10;;;12.30;99.90;;;;;;6237762;23;20019;-88
2023/06/30 01:38:13;;;;;;;10.68;4.45;;;12.20;99.90;;;;;;6232830;23;20392;-88
2023/06/30 01:40:39;;;;;;;8.20;3.40;;;12.30;99.90;;;;;;6208724;23;20020;-89
2023/06/30 01:43:05;;;;;;;12.02;3.97;;;12.20;99.90;;;;;;6209788;23;20095;-88
2023/06/30 01:45:32;;;;;;;10.82;3.47;;;12.20;99.90;;;;;;6212244;23;20015;-87
2023/06/30 01:47:59;;;;;;;10.48;3.80;;;12.30;99.90;;;;;;6211884;23;20020;-89
2023/06/30 01:50:29;;;;;;;9.20;3.33;;;12.40;99.90;;;;;;6236199;23;20012;-89
2023/06/30 01:52:56;;;;;;;7.60;3.47;;;13.50;99.90;;;;;;6208300;23;20109;-89
2023/06/30 01:55:28;;;;;;;11.50;3.85;;;12.40;99.90;;;;;;6208476;23;20082;-87
2023/06/30 01:57:54;;;;;;;10.20;2.95;;;12.30;99.90;;;;;;6210138;23;20016;-86
2023/06/30 02:00:20;;;;;;;12.10;3.90;;;11.90;99.90;;;;;;6210996;23;20091;-88
2023/06/30 02:02:46;;;;;;;11.90;3.78;;;12.40;99.90;;;;;;6210584;23;20035;-88
2023/06/30 02:05:12;;;;;;;12.40;3.92;;;11.90;99.90;;;;;;6235715;23;20082;-87
2023/06/30 02:07:38;;;;;;;10.38;3.45;;;11.90;99.90;;;;;;6235780;23;20016;-89
2023/06/30 02:10:07;;;;;;;7.63;2.95;;;12.20;99.90;;;;;;6211347;23;20015;-88
2023/06/30 02:12:34;;;;;;;10.50;3.50;;;11.80;99.90;;;;;;6236721;23;20016;-89
2023/06/30 02:14:59;;;;;;;14.32;3.47;;;11.70;99.90;;;;;;6211248;23;20016;-88
2023/06/30 02:17:41;;;;;;;7.22;3.22;;;11.70;99.90;;;;;;6209246;23;20012;-87
2023/06/30 02:20:07;;;;;;;10.80;2.83;;;11.60;99.90;;;;;;6209383;23;20070;-86
2023/06/30 02:22:34;;;;;;;9.60;3.13;;;11.60;99.90;;;;;;6210615;23;20043;-88
2023/06/30 02:25:00;;;;;;;14.98;4.32;;;11.30;99.90;;;;;;6207705;23;20026;-89
2023/06/30 02:27:29;;;;;;;10.65;3.30;;;11.80;99.90;;;;;;6207223;23;20115;-88
2023/06/30 02:29:54;;;;;;;8.57;3.03;;;11.80;99.90;;;;;;6207397;23;20020;-87
2023/06/30 02:32:21;;;;;;;9.57;3.60;;;11.40;99.90;;;;;;6207934;23;20600;-87
2023/06/30 02:34:46;;;;;;;11.02;3.22;;;11.70;99.90;;;;;;6207843;23;20612;-86
2023/06/30 02:37:13;;;;;;;11.05;3.00;;;11.30;99.90;;;;;;6233743;23;20079;-86
2023/06/30 02:39:39;;;;;;;7.43;2.95;;;11.40;99.90;;;;;;6208372;23;20475;-87
2023/06/30 02:42:05;;;;;;;11.07;3.88;;;11.40;99.90;;;;;;6208494;23;20012;-85
2023/06/30 02:44:31;;;;;;;14.27;3.10;;;11.70;99.90;;;;;;6208120;23;20819;-88
2023/06/30 02:46:56;;;;;;;11.40;3.08;;;12.60;99.90;;;;;;6209490;23;20047;-88
2023/06/30 02:49:23;;;;;;;7.68;2.78;;;11.10;99.90;;;;;;6208276;23;20020;-88
2023/06/30 02:51:49;;;;;;;12.90;3.28;;;11.10;99.90;;;;;;6209478;23;20020;-86
2023/06/30 02:54:15;;;;;;;14.02;3.47;;;11.10;99.90;;;;;;6206975;23;20043;-88
2023/06/30 02:56:41;;;;;;;10.93;3.33;;;11.10;99.90;;;;;;6208244;23;20015;-88
2023/06/30 02:59:07;;;;;;;12.15;3.67;;;11.20;99.90;;;;;;6208563;23;20054;-87
2023/06/30 03:01:32;;;;;;;11.50;3.05;;;11.70;99.90;;;;;;6209076;23;20027;-88
2023/06/30 03:03:59;;;;;;;9.77;3.40;;;10.80;99.90;;;;;;6208804;23;20020;-89
2023/06/30 03:06:24;;;;;;;7.40;2.80;;;11.40;99.90;;;;;;6208651;23;20012;-88
2023/06/30 03:08:50;;;;;;;8.05;2.50;;;10.80;99.90;;;;;;6208801;23;20030;-87
2023/06/30 03:11:16;;;;;;;10.75;3.13;;;11.20;99.90;;;;;;6206734;23;20457;-86
2023/06/30 03:13:43;;;;;;;12.38;3.15;;;10.50;99.90;;;;;;6207199;23;20483;-87
2023/06/30 03:16:09;;;;;;;12.02;3.35;;;10.80;99.90;;;;;;6205941;23;20040;-86
2023/06/30 03:18:35;;;;;;;7.63;2.72;;;10.70;99.90;;;;;;6205720;23;20034;-87
2023/06/30 03:21:01;;;;;;;11.60;3.67;;;10.80;99.90;;;;;;6206114;23;20004;-87
2023/06/30 03:23:26;;;;;;;8.13;2.95;;;10.70;99.90;;;;;;6206056;23;20051;-86
2023/06/30 03:25:52;;;;;;;10.18;3.55;;;10.50;99.90;;;;;;6206964;23;20016;-86
2023/06/30 03:28:18;;;;;;;10.02;3.08;;;10.70;99.90;;;;;;6207171;23;20027;-86
2023/06/30 03:30:44;;;;;;;7.80;3.25;;;10.60;99.90;;;;;;6207320;23;20412;-87
2023/06/30 03:33:10;;;;;;;11.18;3.05;;;10.50;99.90;;;;;;6207352;23;20031;-87
2023/06/30 03:35:35;;;;;;;8.77;2.80;;;10.90;99.90;;;;;;6207953;23;20028;-86
2023/06/30 03:38:01;;;;;;;6.43;2.55;;;10.70;99.90;;;;;;6208278;23;20012;-87
2023/06/30 03:40:27;;;;;;;6.13;2.90;;;10.50;99.90;;;;;;6232716;23;20016;-87
2023/06/30 03:42:53;;;;;;;8.98;2.97;;;10.80;99.90;;;;;;6207987;23;20023;-88
2023/06/30 03:45:19;;;;;;;8.75;2.70;;;10.90;99.90;;;;;;6233998;23;20016;-86
2023/06/30 03:47:44;;;;;;;15.32;3.22;;;10.80;99.90;;;;;;6207847;23;20020;-87
2023/06/30 03:50:10;;;;;;;9.77;3.30;;;9.20;99.90;;;;;;6208820;23;20020;-87
2023/06/30 03:52:36;;;;;;;6.80;3.08;;;10.70;99.90;;;;;;6207496;23;20019;-88
2023/06/30 03:55:02;;;;;;;7.40;2.80;;;10.60;99.90;;;;;;6231887;23;20058;-88
2023/06/30 03:57:28;;;;;;;8.70;2.95;;;10.80;99.90;;;;;;6207532;23;20087;-86
2023/06/30 03:59:53;;;;;;;12.55;3.08;;;10.60;99.90;;;;;;6207787;23;20043;-87
2023/06/30 04:02:19;;;;;;;8.43;3.35;;;10.70;99.90;;;;;;6208672;23;20016;-86
2023/06/30 04:04:45;;;;;;;9.52;3.60;;;10.70;99.90;;;;;;6209226;23;20059;-87
2023/06/30 04:07:11;;;;;;;25.58;5.25;;;10.50;99.90;;;;;;6210256;23;20027;-87
2023/06/30 04:09:36;;;;;;;6.25;3.13;;;10.60;99.90;;;;;;6208760;23;20013;-86
2023/06/30 04:12:05;;;;;;;11.32;3.80;;;10.70;99.90;;;;;;6208632;23;20517;-86
2023/06/30 04:14:31;;;;;;;11.65;3.80;;;10.70;99.90;;;;;;6233277;23;20020;-86
2023/06/30 04:16:56;;;;;;;11.00;4.18;;;10.70;99.90;;;;;;6209333;23;20008;-86
2023/06/30 04:19:22;;;;;;;13.30;3.90;;;10.70;99.90;;;;;;6210560;23;20012;-88
2023/06/30 04:21:49;;;;;;;10.25;4.57;;;10.80;99.90;;;;;;6208980;23;20012;-88
2023/06/30 04:24:15;;;;;;;9.98;3.35;;;11.40;99.90;;;;;;6209736;23;20019;-86
2023/06/30 04:26:41;;;;;;;11.82;4.10;;;11.30;99.90;;;;;;6233687;23;20020;-88
2023/06/30 04:29:07;;;;;;;9.20;3.53;;;11.50;99.90;;;;;;6233276;23;20016;-87
2023/06/30 04:31:32;;;;;;;11.38;3.13;;;12.00;99.90;;;;;;6206099;23;20027;-87
2023/06/30 04:33:58;;;;;;;13.68;3.72;;;12.00;99.90;;;;;;6232135;23;20099;-88
2023/06/30 04:36:24;;;;;;;9.50;3.35;;;12.30;99.90;;;;;;6207039;23;20008;-89
2023/06/30 04:38:50;;;;;;;6.80;3.05;;;12.50;99.90;;;;;;6206663;23;20094;-88
2023/06/30 04:41:16;;;;;;;7.32;2.80;;;12.90;99.90;;;;;;6208391;23;20016;-87
2023/06/30 04:43:45;;;;;;;10.55;2.85;;;13.10;99.90;;;;;;6207078;23;20023;-87
2023/06/30 04:46:11;;;;;;;6.80;2.45;;;13.70;99.90;;;;;;6232561;23;20020;-87
2023/06/30 04:48:37;;;;;;;10.23;2.75;;;13.90;99.90;;;;;;6233243;23;20095;-89
2023/06/30 04:51:03;;;;;;;11.30;2.50;;;13.80;99.90;;;;;;6207860;23;20020;-88
2023/06/30 04:53:28;;;;;;;7.63;2.40;;;13.60;99.90;;;;;;6208747;23;20019;-89
2023/06/30 04:55:54;;;;;;;11.23;2.75;;;13.70;99.90;;;;;;6207261;23;20015;-88
2023/06/30 04:58:20;;;;;;;9.32;2.45;;;13.80;99.90;;;;;;6208679;23;20051;-88
2023/06/30 05:00:49;;;;;;;5.47;2.17;;;14.10;99.90;;;;;;6207858;23;20016;-88
2023/06/30 05:03:19;;;;;;;5.40;1.90;;;13.90;99.90;;;;;;6207997;23;20050;-88
2023/06/30 05:05:48;;;;;;;9.13;2.10;;;14.10;99.90;;;;;;6232089;23;20016;-88
2023/06/30 05:08:14;;;;;;;4.28;1.67;;;14.50;99.90;;;;;;6208412;23;20043;-90
2023/06/30 05:10:40;;;;;;;7.97;1.67;;;15.70;99.90;;;;;;6208510;23;20047;-88
2023/06/30 05:13:06;;;;;;;5.47;1.70;;;17.10;99.90;;;;;;6208289;23;20016;-89
2023/06/30 05:15:31;;;;;;;7.68;2.22;;;17.50;99.90;;;;;;6209065;23;20058;-88
2023/06/30 05:17:57;;;;;;;8.10;1.70;;;17.30;99.90;;;;;;6206679;23;20068;-87
2023/06/30 05:20:23;;;;;;;8.68;2.35;;;17.40;99.90;;;;;;6206664;23;20569;-87
2023/06/30 05:22:48;;;;;;;5.75;1.50;;;17.20;99.90;;;;;;6207980;23;20046;-88
2023/06/30 05:25:15;;;;;;;9.15;1.55;;;16.80;99.90;;;;;;6207858;23;20019;-87
2023/06/30 05:27:40;;;;;;;4.85;1.52;;;16.50;99.90;;;;;;6231878;23;20016;-88
2023/06/30 05:30:07;;;;;;;7.82;1.50;;;17.20;99.90;;;;;;6208445;23;20027;-89
2023/06/30 05:32:32;;;;;;;6.75;1.77;;;17.40;99.90;;;;;;6208539;23;20023;-86
2023/06/30 05:34:59;;;;;;;6.18;1.25;;;17.00;99.90;;;;;;6208555;23;20080;-92
2023/06/30 05:37:24;;;;;;;4.50;1.10;;;16.80;99.90;;;;;;6209572;23;20085;-88
2023/06/30 05:39:50;;;;;;;7.05;1.25;;;16.80;99.90;;;;;;6207659;23;20023;-87
2023/06/30 05:42:16;;;;;;;4.30;1.27;;;16.70;99.90;;;;;;6232736;23;20008;-86
2023/06/30 05:44:42;;;;;;;4.78;1.08;;;16.90;99.90;;;;;;6209294;23;20016;-89
2023/06/30 05:47:19;;;;;;;5.22;1.20;;;16.80;99.90;;;;;;6210144;23;20020;-86
2023/06/30 05:49:45;;;;;;;5.60;1.27;;;17.40;99.90;;;;;;6206587;23;20024;-87
2023/06/30 05:52:11;;;;;;;4.93;1.20;;;18.60;98.40;;;;;;6231438;23;20016;-88
2023/06/30 05:54:37;;;;;;;6.15;1.35;;;21.10;98.90;;;;;;6206095;23;20023;-87
2023/06/30 05:57:03;;;;;;;9.77;1.83;;;22.30;95.50;;;;;;6205166;23;20191;-89
2023/06/30 05:59:30;;;;;;;5.85;1.13;;;24.00;92.30;;;;;;6205812;23;20023;-88
2023/06/30 06:01:56;;;;;;;5.35;0.80;;;25.80;90.80;;;;;;6205506;23;20018;-87
2023/06/30 06:04:28;;;;;;;5.85;1.45;;;25.60;88.50;;;;;;6205793;23;20016;-87
2023/06/30 06:07:01;;;;;;;3.35;0.90;;;27.30;87.50;;;;;;6206747;23;20006;-86
2023/06/30 06:09:27;;;;;;;6.30;1.15;;;27.90;82.90;;;;;;6205138;23;20367;-89
2023/06/30 06:11:53;;;;;;;3.53;0.50;;;28.80;77.00;;;;;;6206795;23;20001;-90
2023/06/30 06:14:19;;;;;;;5.22;1.13;;;29.50;74.20;;;;;;6206009;23;20779;-88
2023/06/30 06:16:45;;;;;;;4.03;0.60;;;30.10;71.90;;;;;;6206050;23;20026;-89
2023/06/30 06:19:14;;;;;;;6.10;1.67;;;30.80;70.40;;;;;;6206195;23;20015;-89
2023/06/30 06:21:40;;;;;;;4.70;0.60;;;31.30;67.70;;;;;;6206958;23;20050;-91
2023/06/30 06:24:21;;;;;;;3.75;0.50;;;31.60;66.30;;;;;;6206711;23;20012;-88
2023/06/30 06:26:47;;;;;;;6.00;0.77;;;32.20;64.70;;;;;;6211571;23;20016;-90
2023/06/30 06:29:18;;;;;;;7.13;0.50;;;32.10;65.60;;;;;;6210164;23;20018;-88
2023/06/30 06:31:45;;;;;;;;;;;32.50;62.20;;;;;;6209047;23;20107;-90
2023/06/30 06:34:11;;;;;;;4.72;0.63;;;33.20;63.00;;;;;;6206656;23;19920;-89
2023/06/30 06:36:37;;;;;;;4.15;0.52;;;33.60;61.40;;;;;;6208115;23;20016;-95
2023/06/30 06:39:03;;;;;;;4.43;0.50;;;34.00;59.20;;;;;;6209183;23;20087;-89
2023/06/30 06:41:29;;;;;;;2.03;0.60;;;31.40;55.60;;;;;;6209587;23;20081;-92
2023/06/30 06:43:55;;;;;;;3.50;0.52;;;35.00;60.00;;;;;;6209367;23;20047;-85
2023/06/30 06:47:16;;;;;;;3.92;0.63;;;34.70;56.10;;;;;;6186333;23;20035;-86
2023/06/30 06:49:59;;;;;;;2.83;0.35;;;35.10;57.00;;;;;;6196167;23;20027;-86
2023/06/30 06:52:30;;;;;;;4.38;0.50;;;34.60;54.40;;;;;;6205200;23;20012;-89
2023/06/30 06:55:02;;;;;;;;;;;35.70;54.50;;;;;;6206664;23;20027;-90
2023/06/30 06:57:28;;;;;;;3.45;0.38;;;36.10;56.60;;;;;;6239265;23;19947;-91
2023/06/30 06:59:57;;;;;;;4.68;0.55;;;36.20;55.90;;;;;;6210806;23;20078;-90
2023/06/30 07:02:29;;;;;;;3.60;0.43;;;35.70;52.90;;;;;;6209380;23;20610;-89
2023/06/30 07:04:58;;;;;;;4.65;0.45;;;35.30;51.40;;;;;;6235928;23;20452;-88
2023/06/30 07:07:27;;;;;;;5.95;0.30;;;36.00;53.80;;;;;;6210295;23;20012;-91
2023/06/30 07:09:54;;;;;;;4.25;0.52;;;35.50;52.30;;;;;;6208917;23;20353;-91
2023/06/30 07:12:25;;;;;;;3.50;0.35;;;34.80;53.50;;;;;;6230279;23;20359;-89
2023/06/30 07:19:15;;;;;;;3.08;0.45;;;33.90;50.90;;;;;;6171908;23;20025;-89
2023/06/30 07:21:51;;;;;;;5.38;0.52;;;33.00;54.00;;;;;;6112087;23;20282;-91
2023/06/30 07:36:01;;;;;;;2.03;0.20;;;36.10;52.40;;;;;;6120843;23;20093;-91
2023/06/30 07:38:39;;;;;;;4.07;0.30;;;34.90;50.50;;;;;;6006731;23;20018;-88
2023/06/30 07:41:34;;;;;;;3.85;0.50;;;34.90;51.10;;;;;;6087857;23;20242;-89
2023/06/30 07:44:57;;;;;;;2.28;0.30;;;33.00;49.40;;;;;;6157880;23;20696;-88
2023/06/30 07:47:23;;;;;;;2.13;0.20;;;33.40;50.70;;;;;;6043666;23;20095;-91
2023/06/30 07:49:57;;;;;;;2.88;0.50;;;33.00;50.90;;;;;;6176043;23;20028;-88
2023/06/30 07:52:25;;;;;;;4.60;0.50;;;33.50;52.80;;;;;;6154233;23;20017;-87
2023/06/30 07:54:55;;;;;;;3.70;0.35;;;34.60;52.70;;;;;;6153553;23;20071;-89
2023/06/30 07:57:21;;;;;;;3.47;0.50;;;35.60;50.40;;;;;;6154455;23;20116;-88
2023/06/30 07:59:51;;;;;;;3.88;0.43;;;36.40;47.60;;;;;;6152207;23;20135;-92
2023/06/30 08:02:17;;;;;;;3.70;0.20;;;36.70;46.50;;;;;;6190492;23;20015;-88
2023/06/30 08:04:46;;;;;;;3.17;0.20;;;35.70;47.80;;;;;;6212675;23;20016;-89
2023/06/30 08:07:12;;;;;;;2.38;0.30;;;34.70;50.60;;;;;;6213072;23;20336;-93
2023/06/30 08:10:00;;;;;;;3.40;0.32;;;31.90;49.90;;;;;;6214824;23;20023;-88
2023/06/30 08:12:32;;;;;;;3.63;0.30;;;33.30;49.90;;;;;;6214820;23;20043;-90
2023/06/30 08:15:01;;;;;;;4.18;0.30;;;33.00;50.00;;;;;;6210170;23;20135;-90
2023/06/30 08:17:27;;;;;;;1.45;0.10;;;34.30;52.60;;;;;;6214398;23;20016;-94
2023/06/30 08:19:53;;;;;;;4.57;0.47;;;33.80;51.70;;;;;;6209108;23;20054;-90
2023/06/30 08:22:21;;;;;;;3.42;1.25;;;32.30;49.90;;;;;;6210856;23;20016;-89
2023/06/30 08:24:50;;;;;;;1.63;0.20;;;32.40;52.50;;;;;;6211947;23;20027;-88
2023/06/30 08:27:19;;;;;;;1.92;0.28;;;33.50;53.00;;;;;;6214764;23;20024;-87
2023/06/30 08:29:50;;;;;;;4.78;0.43;;;33.90;48.80;;;;;;6210742;23;20020;-90
2023/06/30 08:32:16;;;;;;;4.88;0.40;;;35.00;46.90;;;;;;6212391;23;20434;-87
2023/06/30 08:34:45;;;;;;;1.15;0.13;;;35.20;46.80;;;;;;6211942;23;20023;-90
2023/06/30 08:37:21;;;;;;;;;;;;;;;;;;;;;
2023/06/30 08:39:47;;;;;;;1.30;0.30;;;32.30;50.80;;;;;;6236177;23;20016;-91
2023/06/30 08:42:20;;;;;;;1.48;0.28;;;34.80;54.10;;;;;;6210711;23;20012;-90
2023/06/30 08:44:52;;;;;;;2.38;0.20;;;32.50;48.60;;;;;;6210770;23;20368;-89
2023/06/30 08:47:23;;;;;;;2.17;0.20;;;34.70;48.20;;;;;;6119296;22;20025;-86
2023/06/30 08:49:52;;;;;;;2.72;0.30;;;35.80;47.10;;;;;;6211392;23;20024;-90
2023/06/30 08:52:43;;;;;;;3.22;0.20;;;36.30;48.10;;;;;;6208002;23;20058;-88
2023/06/30 08:55:10;;;;;;;1.70;0.20;;;36.30;46.90;;;;;;6216794;23;20024;-89
2023/06/30 08:57:41;;;;;;;4.65;0.30;;;36.50;45.90;;;;;;6238257;23;20012;-91
2023/06/30 09:00:07;;;;;;;3.33;0.40;;;36.80;45.50;;;;;;6214850;23;20023;-93
2023/06/30 09:02:36;;;;;;;2.78;0.43;;;37.60;46.00;;;;;;6217365;23;20013;-91
2023/06/30 09:16:10;;;;;;;1.45;0.30;;;38.20;42.10;;;;;;6229161;23;20038;-86
2023/06/30 09:18:39;;;;;;;1.80;0.20;;;35.90;44.40;;;;;;6200365;23;20051;-86
2023/06/30 09:21:06;;;;;;;1.23;0.17;;;36.80;45.70;;;;;;6200566;23;20019;-85
2023/06/30 09:23:33;;;;;;;3.10;0.35;;;36.70;47.40;;;;;;6201367;23;20027;-85
2023/06/30 09:26:10;;;;;;;2.75;0.38;;;36.90;43.40;;;;;;6200427;23;20020;-85
2023/06/30 09:28:41;;;;;;;3.45;0.28;;;37.80;43.20;;;;;;6228757;23;20081;-89
2023/06/30 09:31:08;;;;;;;1.45;0.20;;;38.40;42.90;;;;;;6233688;23;20012;-93
2023/06/30 09:33:42;;;;;;;2.30;0.40;;;38.90;40.70;;;;;;6228161;23;20020;-91
2023/06/30 09:36:08;;;;;;;3.53;0.40;;;39.40;40.20;;;;;;6198442;23;20390;-93
2023/06/30 09:38:35;;;;;;;3.10;0.50;;;39.90;41.60;;;;;;6200056;23;20095;-88
2023/06/30 09:41:05;;;;;;;4.45;0.38;;;39.60;42.70;;;;;;6198598;23;20429;-92
2023/06/30 09:43:44;;;;;;;3.20;0.20;;;37.50;42.30;;;;;;6200906;23;20824;-89
2023/06/30 09:46:13;;;;;;;1.23;0.20;;;35.80;43.90;;;;;;6219894;23;20073;-89
2023/06/30 09:48:58;;;;;;;3.20;0.30;;;34.40;44.80;;;;;;6215639;23;20023;-88
2023/06/30 09:55:21;;;;;;;2.70;0.30;;;32.70;45.80;;;;;;6241501;23;20097;-89
2023/06/30 09:57:47;;;;;;;1.02;0.10;;;33.80;48.50;;;;;;6197142;23;20168;-89
2023/06/30 10:00:17;;;;;;;3.38;0.45;;;34.30;46.50;;;;;;6227455;23;20016;-91
2023/06/30 10:17:30;;;;;;;2.50;0.30;;;38.00;45.30;;;;;;6238056;23;20050;-92
2023/06/30 10:19:57;;;;;;;1.80;0.10;;;36.80;44.80;;;;;;6201575;23;20054;-90
2023/06/30 10:22:23;;;;;;;1.42;0.20;;;34.00;43.10;;;;;;6220043;23;20012;-88
2023/06/30 10:24:54;;;;;;;2.55;0.30;;;35.70;45.70;;;;;;6194835;23;20020;-87
2023/06/30 10:27:21;;;;;;;;;;;35.20;43.90;;;;;;6196681;23;20109;-90
2023/06/30 10:29:50;;;;;;;2.55;0.17;;;33.80;43.80;;;;;;6200599;23;20549;-93
2023/06/30 10:32:25;;;;;;;3.05;0.20;;;36.00;45.90;;;;;;6201386;23;20085;-91
2023/06/30 10:46:06;;;;;;;2.40;0.20;;;36.10;43.10;;;;;;6243414;23;20019;-87
2023/06/30 10:48:34;;;;;;;2.97;0.30;;;35.40;46.00;;;;;;6230420;23;20020;-88
2023/06/30 10:51:04;;;;;;;2.15;0.17;;;34.10;43.90;;;;;;6208945;23;20906;-90
2023/06/30 10:53:30;;;;;;;3.17;0.10;;;30.60;43.30;;;;;;6236089;23;20048;-86
2023/06/30 10:55:56;;;;;;;3.42;0.20;;;32.70;48.10;;;;;;6238442;23;20020;-85
2023/06/30 10:58:29;;;;;;;3.00;0.25;;;32.40;48.20;;;;;;6197055;23;20012;-89
2023/06/30 11:01:06;;;;;;;6.22;0.95;;;31.20;45.60;;;;;;6202149;23;20091;-93
2023/06/30 11:03:56;;;;;;;4.65;0.20;;;33.00;47.70;;;;;;6205128;23;20019;-87
2023/06/30 11:06:24;;;;;;;1.13;0.20;;;30.40;47.30;;;;;;6229343;23;20337;-87
2023/06/30 11:09:01;;;;;;;2.70;0.20;;;29.90;50.30;;;;;;6202719;23;20024;-89
2023/06/30 11:11:27;;;;;;;1.52;0.17;;;28.90;50.40;;;;;;6208446;23;20074;-89
2023/06/30 11:14:06;;;;;;;1.35;0.20;;;28.80;52.40;;;;;;6232160;23;20317;-86
2023/06/30 11:17:15;;;;;;;2.13;0.20;;;28.60;51.20;;;;;;6229782;23;20769;-87
2023/06/30 11:19:54;;;;;;;2.22;0.30;;;28.60;49.40;;;;;;6172349;23;20080;-87
2023/06/30 11:22:21;;;;;;;3.92;0.40;;;28.70;50.60;;;;;;6206569;23;20282;-91
2023/06/30 11:24:47;;;;;;;1.50;0.20;;;28.10;51.40;;;;;;6208229;23;20059;-89
2023/06/30 11:27:15;;;;;;;3.15;0.20;;;27.40;50.80;;;;;;6210595;23;20107;-85
2023/06/30 11:29:41;;;;;;;7.07;0.30;;;27.10;51.30;;;;;;6206047;23;20020;-86
2023/06/30 11:32:10;;;;;;;13.15;1.48;;;26.60;51.80;;;;;;6205982;23;20691;-85
2023/06/30 11:34:36;;;;;;;2.08;0.35;;;27.20;53.10;;;;;;6204148;23;20224;-86
2023/06/30 11:37:07;;;;;;;3.13;0.40;;;24.00;54.50;;;;;;6204759;23;20016;-86
2023/06/30 11:39:37;;;;;;;3.25;0.60;;;26.10;54.30;;;;;;6206256;23;20784;-87
2023/06/30 11:42:03;;;;;;;3.70;1.17;;;25.90;54.50;;;;;;6212925;23;20016;-88
2023/06/30 11:44:35;;;;;;;2.97;0.30;;;25.80;54.80;;;;;;6207179;23;20023;-87
2023/06/30 11:47:03;;;;;;;2.28;0.30;;;25.70;55.30;;;;;;6209281;23;20114;-86
2023/06/30 11:49:36;;;;;;;4.10;0.22;;;24.20;55.40;;;;;;6204061;23;20024;-86
2023/06/30 11:52:04;;;;;;;2.03;0.30;;;25.20;55.10;;;;;;6209134;23;20018;-90
2023/06/30 11:54:32;;;;;;;5.38;0.30;;;25.40;53.40;;;;;;6206873;23;20351;-86
2023/06/30 11:57:46;;;;;;;2.15;0.20;;;25.70;55.30;;;;;;6205065;22;20019;-88
2023/06/30 12:00:21;;;;;;;7.05;0.35;;;26.50;54.60;;;;;;6211500;23;20032;-86
2023/06/30 12:02:50;;;;;;;5.15;0.38;;;25.80;56.00;;;;;;6208780;23;20012;-87
2023/06/30 12:05:23;;;;;;;3.53;0.38;;;24.50;57.20;;;;;;6206797;23;20024;-87
2023/06/30 12:07:55;;;;;;;2.17;0.30;;;25.30;55.30;;;;;;6204865;23;20020;-87
2023/06/30 12:10:38;;;;;;;1.85;0.30;;;25.20;56.50;;;;;;6207496;23;20016;-86
2023/06/30 12:13:08;;;;;;;3.03;0.30;;;25.30;55.50;;;;;;6211994;23;20024;-89
2023/06/30 12:15:37;;;;;;;2.72;0.45;;;25.90;57.10;;;;;;6206664;23;20087;-86
2023/06/30 12:18:05;;;;;;;3.50;0.50;;;26.10;57.90;;;;;;6203038;23;20494;-88
2023/06/30 12:20:40;;;;;;;5.07;0.70;;;26.00;59.70;;;;;;6207747;23;20092;-86
2023/06/30 12:23:16;;;;;;;2.15;0.30;;;26.10;57.40;;;;;;6210545;23;20134;-90
2023/06/30 12:25:50;;;;;;;3.15;0.40;;;25.70;57.40;;;;;;6239403;23;20078;-91
2023/06/30 12:28:27;;;;;;;2.65;0.30;;;25.90;58.50;;;;;;6208704;23;20019;-89
2023/06/30 12:31:25;;;;;;;3.13;0.90;;;25.60;60.10;;;;;;6215412;23;20030;-90
2023/06/30 12:34:06;;;;;;;1.63;0.30;;;26.20;58.10;;;;;;6216052;23;20016;-90
2023/06/30 12:36:51;;;;;;;;;;;;;;;;;;;;;
2023/06/30 12:39:29;;;;;;;3.42;0.38;;;25.20;58.30;;;;;;6240035;23;20012;-92
2023/06/30 12:41:55;;;;;;;2.53;0.40;;;25.10;55.70;;;;;;6213926;23;20023;-89
2023/06/30 12:44:32;;;;;;;4.00;0.40;;;25.70;60.70;;;;;;6214157;23;20020;-92
2023/06/30 12:47:06;;;;;;;4.03;0.88;;;25.20;57.00;;;;;;6215001;23;20026;-93
2023/06/30 12:49:37;;;;;;;1.77;0.40;;;25.20;56.80;;;;;;6216788;23;20020;-94
2023/06/30 12:52:09;;;;;;;1.67;0.40;;;23.40;57.20;;;;;;6216138;23;20027;-90
2023/06/30 12:54:48;;;;;;;4.07;0.60;;;24.60;56.50;;;;;;6219040;23;20023;-93
2023/06/30 12:57:26;;;;;;;;;;;;;;;;;;;;;
2023/06/30 13:00:15;;;;;;;4.00;0.40;;;26.00;57.80;;;;;;6241647;23;20012;-94
2023/06/30 13:02:41;;;;;;;4.00;0.47;;;26.00;58.70;;;;;;6198192;23;20008;-92
2023/06/30 13:05:13;;;;;;;5.25;0.55;;;24.90;58.70;;;;;;6155628;23;20025;-93
2023/06/30 13:07:41;;;;;;;4.57;0.80;;;26.20;60.10;;;;;;6156453;23;20017;-93
2023/06/30 13:10:16;;;;;;;2.80;0.50;;;23.00;59.70;;;;;;6131540;23;20021;-90
2023/06/30 13:12:47;;;;;;;4.35;0.40;;;25.90;60.40;;;;;;6155340;23;20017;-90
2023/06/30 13:15:19;;;;;;;5.80;0.63;;;25.80;58.00;;;;;;6153436;23;20020;-88
2023/06/30 13:17:47;;;;;;;1.65;0.30;;;26.20;57.70;;;;;;6125985;23;20016;-92
2023/06/30 13:20:36;;;;;;;;;;;;;;;;;;;;;
2023/06/30 13:23:08;;;;;;;3.15;0.40;;;26.20;58.50;;;;;;6145185;23;20084;-87
2023/06/30 13:25:40;;;;;;;3.78;0.45;;;25.50;57.30;;;;;;6145732;23;20020;-86
2023/06/30 13:28:14;;;;;;;1.42;0.30;;;26.70;58.50;;;;;;6145595;23;20292;-87
2023/06/30 13:31:06;;;;;;;4.35;0.45;;;26.40;56.40;;;;;;6077559;23;20018;-86
2023/06/30 13:33:56;;;;;;;3.90;1.00;;;26.30;55.50;;;;;;6078097;23;20022;-87
2023/06/30 13:37:40;;;;;;;;;;;;;;;;;;;;;
2023/06/30 13:40:11;;;;;;;13.30;1.33;;;27.60;54.80;;;;;;6003181;23;20086;-90
2023/06/30 13:43:24;;;;;;;24.23;1.50;;;26.50;55.50;;;;;;6039443;23;20009;-87
2023/06/30 13:46:12;;;;;;;4.32;0.40;;;27.00;56.20;;;;;;6086114;23;20380;-90
2023/06/30 13:48:46;;;;;;;3.28;0.63;;;25.70;56.20;;;;;;6060764;23;20018;-91
2023/06/30 13:51:27;;;;;;;4.28;0.90;;;26.70;56.30;;;;;;6067943;23;20073;-92
2023/06/30 13:54:11;;;;;;;6.43;0.80;;;25.60;57.20;;;;;;6062153;23;20033;-91
2023/06/30 13:56:37;;;;;;;3.90;0.40;;;25.40;58.90;;;;;;6065698;23;20053;-92
2023/06/30 13:59:09;;;;;;;2.97;0.40;;;25.50;56.20;;;;;;6044682;23;20021;-91
2023/06/30 14:01:35;;;;;;;8.18;1.30;;;26.60;59.60;;;;;;6128811;23;20545;-90
2023/06/30 14:04:10;;;;;;;4.35;0.65;;;25.70;58.10;;;;;;6178602;23;20043;-91